nws-alerts: Checking more than four warning/county codes can delay the loading of your pages. You should use a cron job to get the data.

Nearby METAR Reports

 

KOXC - Oxford/Waterbury, Connecticut, USA
Distance from station: NW 7mi, 11km
Updated: 08/18/2022 3:51pm
Mostly cloudy
Mostly cloudy
 Wind from WSW
Wind: WSW 8 mph , 13 km/h
Temperature: 82°F , 28°C
Heat Index: 81°F , 27°C
Dew Point: 55°F , 13°C
Humidity: 40%
Barometer: 29.88 inHg , 1011.9 hPa
Clouds: Mostly cloudy
Visibility: 10 miles , 16 km
Cloud details: Partly cloudy 6000 ft
Mostly cloudy 11000 ft
2022/08/18 19:51 KOXC 181951Z 24007KT 210V280 10SM SCT060 BKN110 28/13 A2988 RMK AO2 SLP125 T02780128
KHVN - New Haven/Tweed, Connecticut, USA
Distance from station: SE 13mi, 20km
Updated: 08/18/2022 3:53pm
Mostly cloudy
Mostly cloudy
 Wind from SSW
Wind: SSW 8 mph , 13 km/h, Gust: 18 mph , 30 km/h
Temperature: 82°F , 28°C
Heat Index: 83°F , 28°C
Dew Point: 63°F , 17°C
Humidity: 51%
Barometer: 29.85 inHg , 1010.8 hPa
Clouds: Mostly cloudy
Visibility: 10 miles , 16 km
Cloud details: Mostly cloudy 10000 ft
2022/08/18 19:53 KHVN 181953Z 20007G16KT 10SM BKN100 28/17 A2985 RMK AO2 SLP108 T02780167
 
KMMK - Meriden, Connecticut, USA
Distance from station: NE 13mi, 21km
Updated: 08/18/2022 3:53pm
Overcast
Overcast
 Wind from NNW
Wind: NNW 8 mph , 13 km/h
Temperature: 82°F , 28°C
Dew Point: 52°F , 11°C
Humidity: 35%
Barometer: 29.84 inHg , 1010.5 hPa
Clouds: Overcast
Visibility: 10 miles , 16 km
Cloud details: Mostly cloudy 7000 ft
Overcast 9000 ft
2022/08/18 19:53 KMMK 181953Z AUTO 34007KT 10SM BKN070 OVC090 28/11 A2984 RMK AO2 SLP102 T02780111
KBDR - Bridgeport, Connecticut, USA
Distance from station: SSW 17mi, 27km
Updated: 08/18/2022 3:52pm
Mostly cloudy
Mostly cloudy
 Wind from SW
Wind: SW 13 mph , 20 km/h
Temperature: 82°F , 28°C
Heat Index: 82°F , 28°C
Dew Point: 61°F , 16°C
Humidity: 48%
Barometer: 29.85 inHg , 1010.8 hPa
Clouds: Mostly cloudy
Visibility: 10 miles , 16 km
Cloud details: Partly cloudy 8000 ft
Mostly cloudy 11000 ft
2022/08/18 19:52 KBDR 181952Z 22011KT 10SM SCT080 BKN110 28/16 A2985 RMK AO2 SLP107 T02780161
 
KDXR - Danbury, Connecticut, USA
Distance from station: W 23mi, 38km
Updated: 08/18/2022 3:53pm
Mostly cloudy
Mostly cloudy
 Wind from W
Wind: W 10 mph , 17 km/h, Gust: 18 mph , 30 km/h
Temperature: 84°F , 29°C
Dew Point: 52°F , 11°C
Humidity: 33%
Barometer: 29.87 inHg , 1011.5 hPa
Clouds: Mostly cloudy
Visibility: 10 miles , 16 km
Cloud details: Mostly cloudy 11000 ft
2022/08/18 19:53 KDXR 181953Z 27009G16KT 10SM BKN110 29/11 A2987 RMK AO2 SLP110 T02940111